Hastings, United Kingdom
Current Conditions -  °F | °C
As of 10:50 AM on Thursday 23 Oct 2014 (Local Time) from EGMD Reporting Station
Broken Clouds Broken Clouds  
Wind Chill: 59°   Ceiling: 3400
Heat Index: 59°   Visibility: 6mi
Dew Point: 52°   Wind: 10mph
Humidity: 77%   Direction: 230°SW
Pressure: 30.18"   Gusts: NA
Location:  50.86°N, 0.57°E
Report Text: EGMD 230950Z 23009KT 9999 FEW016 BKN034 15/11 Q1022
Loading
Personal Weather Stations






























Interactive Weather Map New forecast layout! Learn more

10-Day Weather Forecast

Advertisements
Track Severe Weather on mobile